Time;durP1;ratioP1;P1;durP2;ratioP2;P2;SDS_P1;SDS_P2;PMS_P1;PMS_P2;Temp;Humidity;BMP_temperature;BMP_pressure;BME280_temperature;BME280_humidity;BME280_pressure;Samples;Min_cycle;Max_cycle;Signal;HPM_P1;HPM_P2
2021/12/08 00:00:30;;;;;;;1.05;0.52;;;;;;;20.71;37.33;97991.13;5131565;27;20043;-58
2021/12/08 00:02:56;;;;;;;0.77;0.50;;;;;;;20.71;37.24;98000.25;5126456;27;20048;-58
2021/12/08 00:05:22;;;;;;;0.82;0.43;;;;;;;20.71;37.27;97993.91;5131099;27;20494;-58
2021/12/08 00:07:49;;;;;;;1.25;0.60;;;;;;;20.71;37.14;97966.91;5124861;27;20066;-58
2021/12/08 00:13:04;;;;;;;1.08;0.60;;;;;;;20.72;37.21;97956.63;5126593;27;20050;-59
2021/12/08 00:15:30;;;;;;;0.60;0.50;;;;;;;20.73;37.17;97958.19;5128623;27;20568;-59
2021/12/08 00:17:56;;;;;;;1.17;0.55;;;;;;;20.73;37.34;97960.97;5131692;27;20553;-59
2021/12/08 00:20:23;;;;;;;1.20;0.50;;;;;;;20.73;37.25;97970.09;5130919;27;20059;-59
2021/12/08 00:22:48;;;;;;;0.98;0.50;;;;;;;20.75;37.32;97961.34;5129051;27;20118;-60
2021/12/08 00:25:14;;;;;;;0.80;0.55;;;;;;;20.77;37.56;97975.63;5101597;27;20050;-59
2021/12/08 00:27:39;;;;;;;1.48;0.68;;;;;;;20.77;37.43;97967.28;5131557;27;20140;-59
2021/12/08 00:30:06;;;;;;;0.52;0.40;;;;;;;20.78;37.29;97960.50;5131429;27;20044;-59
2021/12/08 00:32:33;;;;;;;0.80;0.60;;;;;;;20.76;37.45;97958.16;5128473;27;20079;-59
2021/12/08 00:34:59;;;;;;;1.00;0.60;;;;;;;20.76;37.54;97949.81;5131415;27;20045;-59
2021/12/08 00:37:26;;;;;;;0.90;0.60;;;;;;;20.76;37.65;97951.81;5131072;27;20043;-58
2021/12/08 00:39:52;;;;;;;1.38;0.70;;;;;;;20.75;37.47;97947.44;5128523;27;20053;-58
2021/12/08 00:42:19;;;;;;;0.80;0.60;;;;;;;20.73;37.46;97953.44;5131914;27;20038;-58
2021/12/08 00:44:44;;;;;;;0.60;0.40;;;;;;;20.74;37.59;97959.78;5131137;27;20114;-58
2021/12/08 00:47:10;;;;;;;0.60;0.50;;;;;;;20.74;37.49;97960.56;5128117;27;20507;-56
2021/12/08 00:49:35;;;;;;;0.85;0.60;;;;;;;20.74;37.77;97960.56;5132430;27;20067;-56
2021/12/08 00:52:01;;;;;;;1.27;0.80;;;;;;;20.74;37.77;97954.22;5129983;27;20038;-57
2021/12/08 00:54:26;;;;;;;0.90;0.60;;;;;;;20.75;37.74;97961.34;5129308;27;20039;-56
2021/12/08 00:56:52;;;;;;;1.23;0.75;;;;;;;20.76;37.73;97951.81;5132584;27;20039;-56
2021/12/08 00:59:17;;;;;;;1.38;0.80;;;;;;;20.76;37.62;97958.16;5128983;27;20587;-57
2021/12/08 01:01:43;;;;;;;1.75;0.88;;;;;;;20.76;37.67;97946.25;5130444;27;20098;-56
2021/12/08 01:04:09;;;;;;;1.70;0.80;;;;;;;20.77;37.71;97950.59;5131957;27;20051;-56
2021/12/08 01:06:35;;;;;;;0.77;0.50;;;;;;;20.74;37.65;97943.09;5127982;27;20031;-56
2021/12/08 01:09:01;;;;;;;1.05;0.70;;;;;;;20.74;37.67;97946.66;5130905;27;20411;-56
2021/12/08 01:11:26;;;;;;;1.70;1.00;;;;;;;20.76;37.87;97946.25;5130840;27;20035;-56
2021/12/08 01:13:52;;;;;;;1.25;0.80;;;;;;;20.75;37.79;97948.25;5127539;27;20150;-56
2021/12/08 01:16:20;;;;;;;1.52;0.90;;;;;;;20.74;37.81;97945.88;5131579;27;20026;-58
2021/12/08 01:18:47;;;;;;;1.80;0.90;;;;;;;20.75;37.65;97948.25;5130813;27;20503;-58
2021/12/08 01:21:13;;;;;;;2.05;1.00;;;;;;;20.74;37.80;97937.53;5127706;27;20040;-58
2021/12/08 01:23:40;;;;;;;2.08;1.00;;;;;;;20.74;37.73;97938.34;5130883;27;21046;-58
2021/12/08 01:26:07;;;;;;;1.70;0.98;;;;;;;20.73;37.69;97939.53;5130426;27;20044;-58
2021/12/08 01:28:33;;;;;;;2.03;1.05;;;;;;;20.73;37.85;97935.97;5127402;27;20050;-59
2021/12/08 01:31:01;;;;;;;1.95;1.02;;;;;;;20.74;37.74;97943.09;5131234;27;20047;-57
2021/12/08 01:33:30;;;;;;;1.80;1.02;;;;;;;20.73;37.88;97947.88;5130274;27;20427;-57
2021/12/08 01:35:55;;;;;;;1.65;1.02;;;;;;;20.74;37.71;97948.66;5127399;27;20047;-57
2021/12/08 01:38:22;;;;;;;1.55;0.90;;;;;;;20.75;37.67;97945.47;5130434;27;20072;-57
2021/12/08 01:40:48;;;;;;;2.90;0.98;;;;;;;20.74;37.73;97938.34;5130926;27;20051;-57
2021/12/08 01:43:24;;;;;;;1.38;0.80;;;;;;;20.75;37.77;97941.91;5127318;27;20040;-57
2021/12/08 01:45:59;;;;;;;2.08;1.00;;;;;;;20.76;37.69;97935.94;5128035;27;20578;-57
2021/12/08 01:48:28;;;;;;;2.10;1.02;;;;;;;20.76;37.65;97935.94;5119639;28;20054;-57
2021/12/08 01:51:00;;;;;;;2.08;1.15;;;;;;;20.77;37.87;97928.38;5118178;28;20112;-57
2021/12/08 01:53:25;;;;;;;1.63;1.00;;;;;;;20.79;37.68;97937.13;5118876;28;20103;-57
2021/12/08 01:55:51;;;;;;;2.33;1.00;;;;;;;20.79;37.65;97942.66;5120448;28;20478;-57
2021/12/08 01:58:17;;;;;;;1.80;1.10;;;;;;;20.78;37.73;97947.41;5118948;27;20050;-57
2021/12/08 02:00:54;;;;;;;2.28;1.13;;;;;;;20.77;37.69;97951.41;5129749;27;20035;-57
2021/12/08 02:03:21;;;;;;;1.65;0.90;;;;;;;20.79;37.63;97937.91;5118525;28;20040;-58
2021/12/08 02:05:47;;;;;;;2.03;1.10;;;;;;;20.80;37.72;97931.13;5121383;27;20047;-58
2021/12/08 02:08:13;;;;;;;1.83;1.10;;;;;;;20.80;37.74;97924.78;5125520;27;20039;-58
2021/12/08 02:10:40;;;;;;;1.75;0.95;;;;;;;20.79;37.74;97929.56;5125348;27;20090;-58
2021/12/08 02:13:06;;;;;;;1.58;1.08;;;;;;;20.80;37.51;97925.56;5129724;27;20134;-59
2021/12/08 02:15:33;;;;;;;2.05;1.20;;;;;;;20.79;37.59;97923.22;5127340;27;20174;-59
2021/12/08 02:17:59;;;;;;;2.22;1.20;;;;;;;20.76;37.50;97924.03;5122125;27;20047;-59
2021/12/08 02:20:28;;;;;;;2.10;1.30;;;;;;;20.79;37.50;97929.56;5129288;27;20058;-58
2021/12/08 02:22:53;;;;;;;2.10;1.30;;;;;;;20.79;37.65;97926.78;5131457;27;20046;-58
2021/12/08 02:25:23;;;;;;;2.42;1.30;;;;;;;20.77;37.58;97928.38;5127834;27;20040;-58
2021/12/08 02:27:49;;;;;;;2.10;1.30;;;;;;;20.81;37.63;97931.94;5128009;27;20153;-59
2021/12/08 02:48:52;;;;;;;2.42;1.45;;;;;;;20.79;37.46;97907.34;5129042;27;20443;-57
2021/12/08 02:51:20;;;;;;;2.33;1.33;;;;;;;20.80;37.51;97908.91;5121152;28;20046;-57
2021/12/08 02:53:47;;;;;;;2.10;1.20;;;;;;;20.82;37.60;97906.50;5130453;27;20051;-57
2021/12/08 02:56:16;;;;;;;3.13;1.90;;;;;;;20.80;37.63;97906.13;5134307;27;20293;-57
2021/12/08 02:58:42;;;;;;;2.45;1.60;;;;;;;20.83;37.42;97908.06;5128438;27;20043;-57
2021/12/08 03:01:08;;;;;;;2.50;1.42;;;;;;;20.84;37.38;97909.66;5131602;27;20043;-57
2021/12/08 03:03:35;;;;;;;2.25;1.33;;;;;;;20.85;37.50;97907.66;5134362;27;20145;-57
2021/12/08 03:06:01;;;;;;;2.40;1.48;;;;;;;20.84;37.49;97901.31;5130951;27;20043;-57
2021/12/08 03:08:27;;;;;;;2.80;1.50;;;;;;;20.84;37.40;97890.19;5131994;27;20141;-57
2021/12/08 03:10:53;;;;;;;1.80;1.20;;;;;;;20.85;37.43;97879.88;5133466;27;20056;-57
2021/12/08 03:13:29;;;;;;;2.70;1.50;;;;;;;20.84;37.47;97875.50;5126955;27;20095;-55
2021/12/08 03:15:54;;;;;;;2.30;1.50;;;;;;;20.85;37.58;97874.31;5129778;27;20464;-56
2021/12/08 03:18:20;;;;;;;2.25;1.30;;;;;;;20.85;37.35;97874.31;5133721;27;20521;-56
2021/12/08 03:20:46;;;;;;;2.13;1.52;;;;;;;20.86;37.37;97867.56;5132089;27;20105;-57
2021/12/08 03:23:18;;;;;;;1.88;1.20;;;;;;;20.88;37.41;97862.38;5130006;27;20047;-56
2021/12/08 03:25:54;;;;;;;2.28;1.40;;;;;;;20.86;37.39;97850.91;5121140;28;20039;-56
2021/12/08 03:28:24;;;;;;;2.08;1.27;;;;;;;20.85;37.47;97847.31;5125675;27;20035;-57
2021/12/08 03:31:05;;;;;;;2.10;1.30;;;;;;;20.86;37.34;97837.00;5132897;27;20044;-57
2021/12/08 03:33:31;;;;;;;2.08;1.20;;;;;;;20.85;37.43;97833.41;5128274;27;20395;-57
2021/12/08 03:35:58;;;;;;;2.50;1.48;;;;;;;20.83;37.54;97832.25;5134012;27;20520;-57
2021/12/08 03:38:24;;;;;;;2.28;1.40;;;;;;;20.82;37.41;97834.25;5130937;27;20043;-57
2021/12/08 03:40:51;;;;;;;1.77;1.13;;;;;;;20.80;37.42;97822.75;5130892;27;20038;-57
2021/12/08 03:43:17;;;;;;;2.30;1.40;;;;;;;20.81;37.67;97818.00;5133753;27;20062;-57
2021/12/08 03:45:47;;;;;;;1.80;1.08;;;;;;;20.79;37.45;97812.06;5130522;27;20455;-57
2021/12/08 03:48:27;;;;;;;2.38;1.30;;;;;;;20.77;37.66;97804.13;5129876;27;20453;-57
2021/12/08 03:50:54;;;;;;;2.38;1.25;;;;;;;20.78;37.52;97802.13;5122085;28;20053;-57
2021/12/08 03:53:20;;;;;;;2.00;1.20;;;;;;;20.77;37.48;97806.91;5121089;27;20046;-57
2021/12/08 03:55:48;;;;;;;1.80;1.02;;;;;;;20.78;37.62;97800.13;5131772;27;20126;-57
2021/12/08 03:58:14;;;;;;;1.60;1.00;;;;;;;20.77;37.63;97804.13;5133212;27;20078;-57
2021/12/08 04:00:42;;;;;;;1.90;1.10;;;;;;;20.78;37.51;97800.13;5123857;27;20032;-57
2021/12/08 04:03:09;;;;;;;1.70;1.00;;;;;;;20.80;37.53;97783.06;5130689;27;20042;-57
2021/12/08 04:08:18;;;;;;;2.10;1.17;;;;;;;20.78;37.56;97772.34;5132384;27;20040;-58
2021/12/08 04:10:47;;;;;;;2.35;1.40;;;;;;;20.79;37.38;97762.06;5124467;27;20105;-58
2021/12/08 04:13:13;;;;;;;2.00;1.10;;;;;;;20.80;37.41;97760.84;5129310;27;20414;-56
2021/12/08 04:15:39;;;;;;;1.95;1.17;;;;;;;20.81;37.63;97765.19;5133206;27;20516;-57
2021/12/08 04:18:05;;;;;;;2.00;1.30;;;;;;;20.80;37.41;97758.84;5130499;27;20040;-57
2021/12/08 04:20:36;;;;;;;1.80;1.00;;;;;;;20.80;37.56;97753.28;5102962;27;20042;-57
2021/12/08 04:23:13;;;;;;;3.47;1.00;;;;;;;20.81;37.45;97748.53;5126734;27;20038;-57
2021/12/08 04:25:42;;;;;;;1.60;1.02;;;;;;;20.82;37.44;97741.75;5128566;27;20047;-57
2021/12/08 04:28:15;;;;;;;1.92;1.00;;;;;;;20.81;37.44;97729.84;5131019;27;20369;-57
2021/12/08 04:30:51;;;;;;;2.53;1.17;;;;;;;20.80;37.43;97714.41;5119394;28;20049;-57
2021/12/08 04:33:17;;;;;;;1.50;1.00;;;;;;;20.84;37.38;97717.13;5101145;28;20414;-57
2021/12/08 04:35:51;;;;;;;2.60;1.05;;;;;;;20.81;37.50;97710.41;5121174;28;20035;-59
2021/12/08 04:38:28;;;;;;;1.98;1.15;;;;;;;20.82;37.52;97706.41;5132878;27;20039;-57
2021/12/08 04:41:04;;;;;;;1.92;0.98;;;;;;;20.81;37.49;97706.84;5132759;27;20500;-57
2021/12/08 04:43:50;;;;;;;1.58;0.80;;;;;;;20.80;37.54;97694.16;5128211;27;20043;-56
2021/12/08 04:46:49;;;;;;;1.40;0.95;;;;;;;20.79;37.59;97689.81;5129815;27;20051;-55
2021/12/08 04:49:48;;;;;;;1.58;1.00;;;;;;;20.81;37.55;97704.84;5121155;28;20518;-56
2021/12/08 05:03:40;;;;;;;1.23;0.80;;;;;;;20.82;37.59;97700.06;5128992;27;20065;-56
2021/12/08 05:08:48;;;;;;;1.40;0.90;;;;;;;20.81;37.41;97715.97;5121035;28;20181;-56
2021/12/08 05:11:28;;;;;;;0.90;0.70;;;;;;;20.80;37.41;97708.84;5132002;27;20048;-57
2021/12/08 05:14:11;;;;;;;1.02;0.70;;;;;;;20.79;37.42;97706.47;5120736;28;20039;-57
2021/12/08 05:16:39;;;;;;;1.23;0.73;;;;;;;20.81;37.26;97690.16;5129408;27;20046;-57
2021/12/08 05:19:07;;;;;;;1.50;0.80;;;;;;;20.80;37.27;97677.47;5129176;27;20035;-57
2021/12/08 05:21:41;;;;;;;1.27;0.80;;;;;;;20.80;37.49;97689.38;5128727;27;20043;-57
2021/12/08 05:24:16;;;;;;;0.85;0.70;;;;;;;20.80;37.60;97719.94;5126678;27;20699;-57
2021/12/08 05:26:53;;;;;;;1.13;0.70;;;;;;;20.80;37.51;97719.16;5119427;27;20445;-57
2021/12/08 05:29:30;;;;;;;1.20;0.70;;;;;;;20.81;37.57;97704.84;5127763;27;20039;-57
2021/12/08 05:31:58;;;;;;;0.63;0.52;;;;;;;20.81;37.38;97693.75;5126745;27;20147;-57
2021/12/08 05:34:25;;;;;;;0.95;0.65;;;;;;;20.81;37.52;97688.19;5118721;28;20082;-57
2021/12/08 05:36:51;;;;;;;1.20;0.80;;;;;;;20.80;37.54;97700.50;5119354;28;20409;-58
2021/12/08 05:39:20;;;;;;;1.50;0.60;;;;;;;20.81;37.25;97718.75;5126294;27;20570;-57
2021/12/08 05:41:49;;;;;;;0.77;0.60;;;;;;;20.81;37.54;97721.53;5129350;27;20080;-57
2021/12/08 05:44:15;;;;;;;1.35;0.75;;;;;;;20.84;37.51;97737.34;5128177;27;20311;-57
2021/12/08 05:46:46;;;;;;;1.10;0.63;;;;;;;20.82;37.62;97742.53;5132032;27;20059;-56
2021/12/08 05:49:15;;;;;;;1.63;0.60;;;;;;;20.87;37.47;97727.41;5130498;27;20093;-57
2021/12/08 05:51:42;;;;;;;1.05;0.75;;;;;;;20.86;37.51;97698.84;5127349;27;20503;-57
2021/12/08 05:54:15;;;;;;;1.35;0.60;;;;;;;20.86;37.47;97681.38;5130141;27;20454;-56
2021/12/08 05:56:42;;;;;;;0.82;0.60;;;;;;;20.89;37.50;97688.88;5131861;27;20043;-57
2021/12/08 05:59:11;;;;;;;1.00;0.55;;;;;;;20.90;37.45;97698.78;5129229;27;20576;-57
2021/12/08 06:01:43;;;;;;;0.90;0.70;;;;;;;20.87;37.53;97708.75;5127590;27;20514;-57
2021/12/08 06:04:11;;;;;;;1.17;0.52;;;;;;;20.87;37.66;97716.28;5126742;27;20043;-56
2021/12/08 06:06:37;;;;;;;0.80;0.60;;;;;;;20.87;37.67;97724.63;5127423;27;20081;-58
2021/12/08 06:09:06;;;;;;;0.88;0.60;;;;;;;20.87;37.65;97730.19;5118407;28;20491;-58
2021/12/08 06:11:32;;;;;;;0.88;0.50;;;;;;;20.85;37.60;97741.69;5119009;28;20043;-58
2021/12/08 06:14:00;;;;;;;1.25;0.73;;;;;;;20.84;37.69;97737.34;5119929;28;20054;-59
2021/12/08 06:16:27;;;;;;;0.80;0.60;;;;;;;20.86;37.42;97734.19;5131161;27;20047;-58
2021/12/08 06:18:53;;;;;;;0.88;0.60;;;;;;;20.84;37.51;97739.34;5132039;27;20034;-58
2021/12/08 06:21:23;;;;;;;0.68;0.57;;;;;;;20.86;37.47;97739.75;5135047;27;20054;-58
2021/12/08 06:23:49;;;;;;;1.15;0.68;;;;;;;20.86;37.42;97734.97;5132546;27;20043;-58
2021/12/08 06:26:18;;;;;;;0.80;0.60;;;;;;;20.88;37.50;97745.66;5112830;27;20035;-58
2021/12/08 06:28:44;;;;;;;0.63;0.50;;;;;;;20.87;37.47;97753.22;5128150;27;20040;-58
2021/12/08 06:31:12;;;;;;;0.82;0.60;;;;;;;20.87;37.62;97749.66;5132834;27;20084;-58
2021/12/08 06:33:38;;;;;;;1.00;0.70;;;;;;;20.89;37.47;97738.91;5134738;27;20091;-58
2021/12/08 06:36:10;;;;;;;0.73;0.50;;;;;;;20.89;37.53;97734.13;5121885;27;20063;-58
2021/12/08 06:38:36;;;;;;;0.80;0.60;;;;;;;20.89;37.47;97728.56;5131164;27;20045;-58
2021/12/08 06:41:11;;;;;;;1.10;0.73;;;;;;;20.90;37.48;97737.69;5134866;27;20050;-58
2021/12/08 06:43:46;;;;;;;0.60;0.50;;;;;;;20.92;37.35;97738.06;5134523;27;20055;-59
2021/12/08 06:46:12;;;;;;;0.88;0.65;;;;;;;20.93;37.58;97734.06;5122490;28;20044;-58
2021/12/08 06:48:43;;;;;;;8.00;0.85;;;;;;;20.95;37.44;97722.56;5123957;27;20031;-58
2021/12/08 06:51:15;;;;;;;21.67;2.00;;;;;;;20.96;37.58;97707.44;5126263;27;20411;-59
2021/12/08 06:53:45;;;;;;;22.13;1.97;;;;;;;20.97;37.50;97695.13;5130018;27;20388;-59
2021/12/08 06:56:20;;;;;;;21.42;1.98;;;;;;;20.97;37.41;97712.59;5132306;27;20418;-59
2021/12/08 06:58:56;;;;;;;15.75;1.77;;;;;;;20.99;37.42;97715.72;5128177;27;20036;-59
2021/12/08 07:04:29;;;;;;;9.93;1.58;;;;;;;21.02;37.14;97714.13;5121798;28;20134;-59
2021/12/08 07:07:04;;;;;;;13.73;1.80;;;;;;;21.00;37.21;97694.28;5123019;28;20035;-58
2021/12/08 07:09:43;;;;;;;11.15;1.42;;;;;;;21.03;37.12;97702.59;5099374;28;20063;-58
2021/12/08 07:12:18;;;;;;;7.85;1.00;;;;;;;21.00;37.40;97708.16;5121528;28;20051;-58
2021/12/08 07:14:50;;;;;;;9.95;1.10;;;;;;;21.01;37.13;97718.91;5120669;28;20051;-58
2021/12/08 07:17:21;;;;;;;6.15;1.73;;;;;;;21.00;37.28;97725.63;5121023;28;20096;-58
2021/12/08 07:19:52;;;;;;;13.10;1.20;;;;;;;20.97;37.16;97729.25;5102660;28;20048;-58
2021/12/08 07:22:34;;;;;;;7.28;1.23;;;;;;;21.00;36.96;97745.09;5123624;28;20031;-58
2021/12/08 07:25:04;;;;;;;7.22;1.10;;;;;;;21.00;37.22;97741.53;5122663;28;20084;-58
2021/12/08 07:27:33;;;;;;;8.27;1.00;;;;;;;21.02;37.24;97747.47;5131116;27;20096;-56
2021/12/08 07:30:05;;;;;;;12.27;1.13;;;;;;;21.03;37.12;97726.81;5129879;27;20086;-57
2021/12/08 07:32:34;;;;;;;4.93;0.88;;;;;;;21.01;37.24;97724.47;5121231;28;20047;-56
2021/12/08 07:35:05;;;;;;;5.30;0.88;;;;;;;21.01;37.08;97732.00;5119371;27;20078;-55
2021/12/08 07:37:34;;;;;;;3.78;0.68;;;;;;;21.02;37.23;97739.94;5128010;27;20447;-56
2021/12/08 07:40:06;;;;;;;3.60;1.02;;;;;;;21.02;37.18;97751.03;5127007;27;20043;-58
2021/12/08 07:42:38;;;;;;;1.58;0.68;;;;;;;21.03;37.20;97737.94;5118245;27;20482;-57
2021/12/08 07:45:10;;;;;;;5.38;0.90;;;;;;;21.05;37.03;97733.53;5115097;27;20418;-57
2021/12/08 07:47:36;;;;;;;;;;;;;;;21.18;36.88;97728.19;5121118;28;20122;-57
2021/12/08 07:50:27;;;;;;;3.05;0.70;;;;;;;21.17;37.29;97723.84;5116705;28;20030;-57
2021/12/08 07:52:54;;;;;;;110.18;8.10;;;;;;;21.20;37.02;97739.69;5113269;28;20085;-56
2021/12/08 07:55:26;;;;;;;89.95;6.57;;;;;;;21.19;37.07;97738.09;5123046;27;20039;-57
2021/12/08 07:57:53;;;;;;;86.88;5.78;;;;;;;21.25;37.14;97746.78;5125978;27;20031;-57
2021/12/08 08:00:31;;;;;;;78.38;6.00;;;;;;;21.24;36.97;97754.34;5124349;27;20043;-57
2021/12/08 08:02:57;;;;;;;79.30;7.25;;;;;;;21.25;37.00;97755.13;5125623;27;20187;-57
2021/12/08 08:05:28;;;;;;;60.53;8.73;;;;;;;21.25;36.63;97760.69;5117288;27;20126;-57
2021/12/08 08:07:56;;;;;;;63.15;9.02;;;;;;;21.23;36.71;97752.75;5120530;28;20107;-57
2021/12/08 08:10:23;;;;;;;28.40;7.85;;;;;;;21.24;36.59;97745.19;5121478;28;20047;-57
2021/12/08 08:12:51;;;;;;;46.17;7.80;;;;;;;21.24;36.52;97742.41;5114981;28;20633;-53
2021/12/08 08:15:25;;;;;;;33.78;6.95;;;;;;;21.23;36.72;97741.63;5116223;28;20503;-53
2021/12/08 08:17:53;;;;;;;32.13;6.00;;;;;;;21.25;36.74;97744.00;5113375;28;20035;-49
2021/12/08 08:20:31;;;;;;;20.20;5.47;;;;;;;21.25;36.44;97763.47;5115325;28;20474;-52
2021/12/08 08:22:59;;;;;;;21.70;5.00;;;;;;;21.28;36.52;97768.19;5115371;28;20144;-52
2021/12/08 08:25:29;;;;;;;23.25;4.32;;;;;;;21.28;36.40;97769.00;5097438;28;20063;-58
2021/12/08 08:27:55;;;;;;;24.70;5.38;;;;;;;21.31;36.34;97782.06;5123073;27;20045;-57
2021/12/08 08:30:25;;;;;;;15.95;5.75;;;;;;;21.34;36.25;97786.00;5130657;27;20472;-58
2021/12/08 08:32:55;;;;;;;14.02;6.50;;;;;;;21.39;36.14;97788.31;5130736;27;20051;-58
2021/12/08 08:35:39;;;;;;;15.52;5.50;;;;;;;21.39;36.11;97789.13;5111548;27;20051;-58
2021/12/08 08:38:11;;;;;;;15.85;4.53;;;;;;;21.41;36.12;97786.69;5117240;27;20046;-57
2021/12/08 08:40:42;;;;;;;14.57;4.30;;;;;;;21.41;35.66;97781.13;5115722;28;20047;-57
2021/12/08 08:43:09;;;;;;;10.88;4.20;;;;;;;21.43;35.59;97784.31;5109501;28;20047;-57
2021/12/08 08:45:45;;;;;;;11.60;3.88;;;;;;;21.41;35.69;97783.91;5117274;28;20460;-57
2021/12/08 08:48:18;;;;;;;8.23;3.60;;;;;;;21.37;35.85;97774.84;5117936;28;20042;-57
2021/12/08 08:50:55;;;;;;;;;;;;;;;21.39;35.64;97778.00;5115701;27;20027;-57
2021/12/08 08:53:25;;;;;;;5.60;2.83;;;;;;;21.36;35.88;97772.47;5118113;27;20362;-57
2021/12/08 08:55:58;;;;;;;7.60;2.90;;;;;;;21.35;35.79;97766.13;5118073;28;20423;-57
2021/12/08 08:58:26;;;;;;;5.30;2.30;;;;;;;21.33;35.75;97756.63;5120894;27;20055;-57
2021/12/08 09:01:02;;;;;;;6.25;2.25;;;;;;;21.31;35.88;97754.25;5118470;27;20173;-57
2021/12/08 09:03:34;;;;;;;5.43;2.42;;;;;;;21.30;35.89;97749.91;5114860;27;20100;-59
2021/12/08 09:06:10;;;;;;;5.20;2.20;;;;;;;21.27;35.79;97761.03;5121742;28;20110;-57
2021/12/08 09:08:38;;;;;;;7.03;2.15;;;;;;;21.26;35.85;97753.91;5118046;27;20059;-57
2021/12/08 09:11:13;;;;;;;3.83;1.85;;;;;;;21.25;35.70;97760.69;5101995;28;20043;-57
2021/12/08 09:13:45;;;;;;;4.47;2.08;;;;;;;21.24;35.86;97750.75;5122898;27;20050;-58
2021/12/08 09:16:16;;;;;;;3.72;2.00;;;;;;;21.23;35.85;97741.63;5120783;28;20128;-57
2021/12/08 09:18:51;;;;;;;4.28;2.10;;;;;;;21.23;35.88;97752.75;5124790;27;20050;-57
2021/12/08 09:21:26;;;;;;;2.90;1.60;;;;;;;21.22;36.21;97745.63;5123357;27;20096;-57
2021/12/08 09:24:07;;;;;;;4.28;1.90;;;;;;;21.22;35.87;97756.75;5122024;27;20080;-57
2021/12/08 09:26:37;;;;;;;4.18;1.60;;;;;;;21.21;36.07;97755.16;5122457;28;20066;-58
2021/12/08 09:29:14;;;;;;;5.55;1.50;;;;;;;21.20;35.91;97753.56;5119767;28;20051;-57
2021/12/08 09:31:55;;;;;;;4.45;1.40;;;;;;;21.21;36.02;97749.59;5119158;27;20137;-57
2021/12/08 09:34:32;;;;;;;3.47;1.30;;;;;;;21.26;36.03;97760.25;5121229;27;20044;-57
2021/12/08 09:37:02;;;;;;;3.83;1.30;;;;;;;21.24;35.90;97754.34;5119158;28;20043;-57
2021/12/08 09:39:42;;;;;;;4.13;1.48;;;;;;;21.22;36.15;97753.16;5119538;27;20131;-56
2021/12/08 09:42:17;;;;;;;3.83;1.27;;;;;;;21.22;36.12;97748.41;5120531;27;20039;-57
2021/12/08 09:44:47;;;;;;;2.13;1.02;;;;;;;21.22;35.84;97745.63;5120148;28;20055;-57
2021/12/08 09:47:14;;;;;;;6.07;1.15;;;;;;;21.23;35.92;97741.63;5114399;28;20046;-54
2021/12/08 09:49:40;;;;;;;2.13;1.02;;;;;;;21.23;35.72;97736.06;5123162;27;20554;-52
2021/12/08 09:52:08;;;;;;;5.53;1.20;;;;;;;21.24;35.88;97737.66;5123768;28;20074;-53
2021/12/08 09:54:37;;;;;;;7.07;1.15;;;;;;;21.23;35.70;97738.06;5128576;27;20047;-51
2021/12/08 09:57:07;;;;;;;2.83;0.90;;;;;;;21.23;35.52;97741.63;5123795;28;20052;-50
2021/12/08 09:59:33;;;;;;;3.67;0.90;;;;;;;21.23;35.67;97744.41;5121843;27;20119;-53
2021/12/08 10:02:03;;;;;;;1.95;0.88;;;;;;;21.23;35.41;97741.63;5120224;27;20050;-52
2021/12/08 10:04:29;;;;;;;1.10;0.70;;;;;;;21.23;35.64;97738.84;5117978;28;20039;-53
2021/12/08 10:06:59;;;;;;;1.27;0.80;;;;;;;21.22;35.55;97742.84;5120412;28;20042;-50
2021/12/08 10:09:24;;;;;;;2.17;0.95;;;;;;;21.24;35.50;97726.53;5123500;28;20096;-54
2021/12/08 10:11:54;;;;;;;2.05;0.93;;;;;;;21.25;35.42;97730.09;5114138;28;20043;-57
2021/12/08 10:14:20;;;;;;;2.92;0.98;;;;;;;21.21;35.41;97727.34;5115888;28;20139;-57
2021/12/08 10:16:49;;;;;;;4.88;1.00;;;;;;;21.16;35.55;97720.28;5112604;28;20047;-57
2021/12/08 10:19:17;;;;;;;2.13;0.90;;;;;;;21.18;35.61;97719.84;5114961;27;20075;-57
2021/12/08 10:21:44;;;;;;;1.67;0.93;;;;;;;21.17;35.58;97715.50;5126210;27;20814;-57
2021/12/08 10:24:25;;;;;;;3.50;0.90;;;;;;;21.16;35.63;97716.72;5117258;27;20040;-57
2021/12/08 10:26:53;;;;;;;3.95;1.00;;;;;;;21.16;35.77;97713.94;5119025;27;20043;-58
2021/12/08 10:29:26;;;;;;;1.95;1.00;;;;;;;21.13;35.95;97709.19;5110329;27;20456;-58
2021/12/08 10:31:53;;;;;;;1.80;0.90;;;;;;;21.13;35.93;97714.75;5120404;27;20083;-57
2021/12/08 10:34:23;;;;;;;3.40;1.60;;;;;;;21.15;35.81;97712.34;5122259;28;20155;-57
2021/12/08 10:36:57;;;;;;;5.55;1.55;;;;;;;21.15;35.94;97712.34;5120519;27;20054;-57
2021/12/08 10:39:58;;;;;;;5.07;2.00;;;;;;;21.14;36.07;97707.97;5120494;28;20399;-57
2021/12/08 10:42:29;;;;;;;3.60;1.88;;;;;;;21.16;35.82;97716.72;5102182;27;20127;-57
2021/12/08 10:45:14;;;;;;;3.47;1.70;;;;;;;21.16;35.89;97714.72;5127156;28;20047;-57
2021/12/08 10:47:53;;;;;;;4.78;1.63;;;;;;;21.19;35.82;97707.53;5126265;27;20056;-57
2021/12/08 10:56:19;;;;;;;2.72;1.70;;;;;;;21.33;35.45;97717.69;5120767;27;20049;-58
2021/12/08 10:58:50;;;;;;;3.13;1.90;;;;;;;21.39;35.07;97716.78;5124495;28;20047;-58
2021/12/08 11:01:19;;;;;;;2.90;1.88;;;;;;;21.41;35.08;97714.38;5124694;27;20123;-58
2021/12/08 11:03:47;;;;;;;4.65;1.60;;;;;;;21.46;35.08;97715.13;5125304;28;20055;-58
2021/12/08 11:06:15;;;;;;;5.20;1.70;;;;;;;21.49;35.30;97709.50;5121742;28;20039;-59
2021/12/08 11:08:47;;;;;;;3.45;1.75;;;;;;;21.50;35.02;97713.84;5123521;28;20181;-58
2021/12/08 11:11:22;;;;;;;6.90;1.92;;;;;;;21.49;34.78;97719.84;5122235;28;20051;-59
2021/12/08 11:14:05;;;;;;;3.55;1.40;;;;;;;21.49;34.83;97712.28;5119502;27;20093;-57
2021/12/08 11:16:42;;;;;;;6.38;1.92;;;;;;;21.47;35.06;97722.25;5120863;28;20035;-58
2021/12/08 11:19:14;;;;;;;2.90;1.45;;;;;;;21.47;34.95;97725.03;5120992;28;20063;-58
2021/12/08 11:21:47;;;;;;;4.88;1.45;;;;;;;21.46;35.08;97712.34;5123032;27;20096;-58
2021/12/08 11:24:20;;;;;;;2.17;1.20;;;;;;;21.47;35.23;97717.47;5123722;28;20510;-57
2021/12/08 11:26:47;;;;;;;;;;;;;;;21.52;35.02;97714.22;5126826;27;20100;-57
2021/12/08 11:29:18;;;;;;;5.53;1.58;;;;;;;21.47;34.97;97713.91;5122791;28;19919;-58
2021/12/08 11:31:52;;;;;;;8.32;1.50;;;;;;;21.47;35.32;97713.91;5123797;27;20046;-57
2021/12/08 11:34:22;;;;;;;4.55;1.33;;;;;;;21.47;35.06;97717.47;5124508;28;20502;-57
2021/12/08 11:36:53;;;;;;;10.52;1.48;;;;;;;21.46;35.19;97713.13;5099284;28;20358;-61
2021/12/08 11:39:28;;;;;;;3.55;1.23;;;;;;;21.44;35.11;97707.22;5123365;28;20473;-58
2021/12/08 11:41:56;;;;;;;2.97;1.05;;;;;;;21.47;35.43;97711.13;5123994;28;20067;-58
2021/12/08 11:44:27;;;;;;;15.15;1.33;;;;;;;21.47;35.30;97716.69;5122320;28;20039;-57
2021/12/08 11:47:03;;;;;;;4.60;1.20;;;;;;;21.49;35.27;97715.06;5123450;28;20040;-57
2021/12/08 11:49:30;;;;;;;2.30;1.15;;;;;;;21.48;35.62;97712.69;5121223;27;20092;-57
2021/12/08 11:52:06;;;;;;;3.08;1.17;;;;;;;21.46;35.60;97713.13;5126192;27;20035;-57
2021/12/08 11:54:36;;;;;;;2.28;1.40;;;;;;;21.46;35.37;97710.34;5120646;27;20547;-58
2021/12/08 11:57:11;;;;;;;1.63;1.00;;;;;;;21.47;35.51;97711.91;5120609;28;20067;-58
2021/12/08 11:59:44;;;;;;;7.68;1.10;;;;;;;21.44;35.53;97715.56;5116285;28;20498;-57
2021/12/08 12:02:13;;;;;;;3.00;1.25;;;;;;;21.46;35.55;97713.13;5123960;27;20054;-58
2021/12/08 12:04:40;;;;;;;3.67;1.15;;;;;;;21.48;35.34;97718.25;5121650;28;20168;-57
2021/12/08 12:07:09;;;;;;;2.75;1.10;;;;;;;21.46;35.43;97709.56;5123976;28;20511;-58
2021/12/08 12:09:35;;;;;;;4.75;0.88;;;;;;;21.47;35.15;97711.13;5125240;28;20177;-57
2021/12/08 12:12:01;;;;;;;1.52;0.85;;;;;;;21.47;34.93;97711.13;5125137;27;21241;-57
2021/12/08 12:14:28;;;;;;;2.50;1.20;;;;;;;21.47;34.84;97711.13;5122562;28;20096;-57
2021/12/08 12:16:55;;;;;;;1.30;0.80;;;;;;;21.46;35.08;97713.13;5120351;28;20039;-57
2021/12/08 12:19:24;;;;;;;1.38;0.88;;;;;;;21.45;35.12;97703.22;5125521;28;20043;-57
2021/12/08 12:22:11;;;;;;;2.20;1.00;;;;;;;21.46;34.97;97709.56;5120873;28;20047;-57
2021/12/08 12:25:01;;;;;;;1.50;0.70;;;;;;;21.47;34.94;97711.91;5124035;28;20039;-57
2021/12/08 12:27:40;;;;;;;1.60;1.00;;;;;;;21.47;34.79;97711.13;5121751;28;20051;-57
2021/12/08 12:30:05;;;;;;;1.30;0.77;;;;;;;21.50;34.61;97713.06;5123019;28;20047;-57
2021/12/08 12:32:36;;;;;;;3.95;0.80;;;;;;;21.49;34.92;97715.06;5125309;27;20421;-57
2021/12/08 12:35:17;;;;;;;1.23;0.80;;;;;;;21.45;34.81;97702.44;5122108;27;20071;-57